Rogue Valley International Medford Airport Medford US
ICAO: KMFR
IATA: MFR
Category: Medium
Scheduled Services: Yes

Elevation: 1335 ft
TransAlt. 18000 ft.

Airport Communications:
CASCADE APP/DEP:124.3
ATIS:127.25
CTAF:119.4
GND:121.8
MC MINNVILLE RDO:122.65
MEDFORD TWR:119.4
UNICOM:122.95

KMFR Zoom In..

Runways:

(A) RW 14 length 8800 ft width 150 ft
ILS 110.30 / hdg 142

(B) RW 32 length 8800 ft width 150 ft
---- / hdg 322

Location; KMFR
Day. 21 / Time. 05.53 Zulu
* Altimeter: 30.00
* Temperature: 22° c. 71.6°f.
* Wind from: 350° Speed 04 kn.
Dewpoint: 04° c.
Visibility: 6 Statute Miles.
Clouds: Clear (automated report).
Conditions: Haze.

KMFR 210553Z AUTO 35004KT 6SM HZ CLR 22/04 A3000 RMK AO2 SLP148 T02220039 10322 20222 51019


Wind From 350°
Speed 04 kn.

 
 
jpsmedia.com for Web Design worldairports.se 2018   terms of use